Bridgeton, Indiana
Current Conditions -  °F | °C
As of 7:53 AM on Friday 28 Nov 2014 (Local Time) from KHUF Reporting Station
Broken Clouds Broken Clouds  
Wind Chill: 13°   Ceiling: 12000
Heat Index: 22°   Visibility: 10mi
Dew Point: 17°   Wind: 7mph
Humidity: 82%   Direction: 150°SSE
Pressure: 30.36"   Gusts: NA
Location:  39.65°N, 87.18°W
Report Text: KHUF 281253Z 15006KT 10SM FEW070 BKN120 M06/M08 A3036 RMK AO2 SLP290 T10561083
Loading
Personal Weather Stations






























Interactive Weather Map New forecast layout! Learn more

10-Day Weather Forecast

Advertisements
Track Severe Weather on mobile